sensor_id;sensor_type;location;lat;lon;timestamp;temperature;humidity
2212;DHT22;48849;48.758;9.158;2023-08-12T00:01:43;22.20;99.90
2212;DHT22;48849;48.758;9.158;2023-08-12T00:08:18;22.10;99.90
2212;DHT22;48849;48.758;9.158;2023-08-12T00:14:53;22.20;99.90
2212;DHT22;48849;48.758;9.158;2023-08-12T00:17:34;22.20;99.90
2212;DHT22;48849;48.758;9.158;2023-08-12T00:23:26;22.20;99.90
2212;DHT22;48849;48.758;9.158;2023-08-12T00:26:22;22.10;99.90
2212;DHT22;48849;48.758;9.158;2023-08-12T00:35:34;22.10;99.90
2212;DHT22;48849;48.758;9.158;2023-08-12T00:38:02;22.10;99.90
2212;DHT22;48849;48.758;9.158;2023-08-12T00:40:30;22.10;99.90
2212;DHT22;48849;48.758;9.158;2023-08-12T00:42:57;22.10;99.90
2212;DHT22;48849;48.758;9.158;2023-08-12T00:45:24;22.00;99.90
2212;DHT22;48849;48.758;9.158;2023-08-12T00:47:51;22.00;99.90
2212;DHT22;48849;48.758;9.158;2023-08-12T00:50:18;22.10;99.90
2212;DHT22;48849;48.758;9.158;2023-08-12T00:52:45;22.00;99.90
2212;DHT22;48849;48.758;9.158;2023-08-12T00:55:14;22.00;99.90
2212;DHT22;48849;48.758;9.158;2023-08-12T00:57:43;22.00;99.90
2212;DHT22;48849;48.758;9.158;2023-08-12T01:00:11;22.00;99.90
2212;DHT22;48849;48.758;9.158;2023-08-12T01:02:38;22.00;99.90
2212;DHT22;48849;48.758;9.158;2023-08-12T01:05:05;22.10;99.90
2212;DHT22;48849;48.758;9.158;2023-08-12T01:07:32;22.00;99.90
2212;DHT22;48849;48.758;9.158;2023-08-12T01:09:59;22.00;99.90
2212;DHT22;48849;48.758;9.158;2023-08-12T01:12:28;22.00;99.90
2212;DHT22;48849;48.758;9.158;2023-08-12T01:15:04;22.00;99.90
2212;DHT22;48849;48.758;9.158;2023-08-12T01:17:34;22.00;99.90
2212;DHT22;48849;48.758;9.158;2023-08-12T01:20:05;22.00;99.90
2212;DHT22;48849;48.758;9.158;2023-08-12T01:22:34;21.90;99.90
2212;DHT22;48849;48.758;9.158;2023-08-12T01:25:07;22.00;99.90
2212;DHT22;48849;48.758;9.158;2023-08-12T01:27:35;22.00;99.90
2212;DHT22;48849;48.758;9.158;2023-08-12T01:30:03;21.90;99.90
2212;DHT22;48849;48.758;9.158;2023-08-12T01:32:38;21.90;99.90
2212;DHT22;48849;48.758;9.158;2023-08-12T01:35:09;21.90;99.90
2212;DHT22;48849;48.758;9.158;2023-08-12T01:37:38;22.00;99.90
2212;DHT22;48849;48.758;9.158;2023-08-12T01:40:10;22.00;99.90
2212;DHT22;48849;48.758;9.158;2023-08-12T01:42:41;21.90;99.90
2212;DHT22;48849;48.758;9.158;2023-08-12T01:45:09;21.90;99.90
2212;DHT22;48849;48.758;9.158;2023-08-12T01:47:36;22.00;99.90
2212;DHT22;48849;48.758;9.158;2023-08-12T01:50:04;21.90;99.90
2212;DHT22;48849;48.758;9.158;2023-08-12T01:52:32;22.00;99.90
2212;DHT22;48849;48.758;9.158;2023-08-12T01:54:58;22.00;99.90
2212;DHT22;48849;48.758;9.158;2023-08-12T01:57:27;22.00;99.90
2212;DHT22;48849;48.758;9.158;2023-08-12T01:59:54;22.00;99.90
2212;DHT22;48849;48.758;9.158;2023-08-12T02:02:21;21.90;99.90
2212;DHT22;48849;48.758;9.158;2023-08-12T02:04:51;21.90;99.90
2212;DHT22;48849;48.758;9.158;2023-08-12T02:07:18;21.90;99.90
2212;DHT22;48849;48.758;9.158;2023-08-12T02:09:45;21.90;99.90
2212;DHT22;48849;48.758;9.158;2023-08-12T02:12:12;21.90;99.90
2212;DHT22;48849;48.758;9.158;2023-08-12T02:14:41;21.90;99.90
2212;DHT22;48849;48.758;9.158;2023-08-12T02:17:08;22.00;99.90
2212;DHT22;48849;48.758;9.158;2023-08-12T02:19:35;21.90;99.90
2212;DHT22;48849;48.758;9.158;2023-08-12T02:22:09;21.90;99.90
2212;DHT22;48849;48.758;9.158;2023-08-12T02:24:36;21.90;99.90
2212;DHT22;48849;48.758;9.158;2023-08-12T02:27:09;21.90;99.90
2212;DHT22;48849;48.758;9.158;2023-08-12T02:29:37;21.90;99.90
2212;DHT22;48849;48.758;9.158;2023-08-12T02:32:06;21.90;99.90
2212;DHT22;48849;48.758;9.158;2023-08-12T02:34:33;21.90;99.90
2212;DHT22;48849;48.758;9.158;2023-08-12T02:37:00;21.90;99.90
2212;DHT22;48849;48.758;9.158;2023-08-12T02:39:29;21.90;99.90
2212;DHT22;48849;48.758;9.158;2023-08-12T02:41:56;21.90;99.90
2212;DHT22;48849;48.758;9.158;2023-08-12T02:44:24;21.90;99.90
2212;DHT22;48849;48.758;9.158;2023-08-12T02:46:56;21.90;99.90
2212;DHT22;48849;48.758;9.158;2023-08-12T02:49:24;22.00;99.90
2212;DHT22;48849;48.758;9.158;2023-08-12T02:51:52;21.90;99.90
2212;DHT22;48849;48.758;9.158;2023-08-12T02:54:22;22.00;99.90
2212;DHT22;48849;48.758;9.158;2023-08-12T02:56:50;22.00;99.90
2212;DHT22;48849;48.758;9.158;2023-08-12T02:59:19;22.00;99.90
2212;DHT22;48849;48.758;9.158;2023-08-12T03:01:47;22.00;99.90
2212;DHT22;48849;48.758;9.158;2023-08-12T03:04:13;22.00;99.90
2212;DHT22;48849;48.758;9.158;2023-08-12T03:06:43;22.00;99.90
2212;DHT22;48849;48.758;9.158;2023-08-12T03:09:11;22.00;99.90
2212;DHT22;48849;48.758;9.158;2023-08-12T03:11:41;22.10;99.90
2212;DHT22;48849;48.758;9.158;2023-08-12T03:14:08;22.10;99.90
2212;DHT22;48849;48.758;9.158;2023-08-12T03:16:36;22.10;99.90
2212;DHT22;48849;48.758;9.158;2023-08-12T03:19:05;22.10;99.90
2212;DHT22;48849;48.758;9.158;2023-08-12T03:21:32;22.10;99.90
2212;DHT22;48849;48.758;9.158;2023-08-12T03:24:01;22.10;99.90
2212;DHT22;48849;48.758;9.158;2023-08-12T03:26:32;22.10;99.90
2212;DHT22;48849;48.758;9.158;2023-08-12T03:29:01;22.10;99.90
2212;DHT22;48849;48.758;9.158;2023-08-12T03:31:33;22.10;99.90
2212;DHT22;48849;48.758;9.158;2023-08-12T03:34:01;22.10;99.90
2212;DHT22;48849;48.758;9.158;2023-08-12T03:36:32;22.10;99.90
2212;DHT22;48849;48.758;9.158;2023-08-12T03:39:01;22.10;99.90
2212;DHT22;48849;48.758;9.158;2023-08-12T03:41:28;22.10;99.90
2212;DHT22;48849;48.758;9.158;2023-08-12T03:43:56;22.10;99.90
2212;DHT22;48849;48.758;9.158;2023-08-12T03:46:25;22.10;99.90
2212;DHT22;48849;48.758;9.158;2023-08-12T03:48:51;22.10;99.90
2212;DHT22;48849;48.758;9.158;2023-08-12T03:51:20;22.20;99.90
2212;DHT22;48849;48.758;9.158;2023-08-12T03:53:47;22.20;99.90
2212;DHT22;48849;48.758;9.158;2023-08-12T03:56:16;22.10;99.90
2212;DHT22;48849;48.758;9.158;2023-08-12T03:58:49;22.10;99.90
2212;DHT22;48849;48.758;9.158;2023-08-12T04:01:18;22.20;99.90
2212;DHT22;48849;48.758;9.158;2023-08-12T04:03:45;22.20;99.90
2212;DHT22;48849;48.758;9.158;2023-08-12T04:06:14;22.10;99.90
2212;DHT22;48849;48.758;9.158;2023-08-12T04:08:40;22.10;99.90
2212;DHT22;48849;48.758;9.158;2023-08-12T04:11:11;22.10;99.90
2212;DHT22;48849;48.758;9.158;2023-08-12T04:13:40;22.10;99.90
2212;DHT22;48849;48.758;9.158;2023-08-12T04:16:14;22.10;99.90
2212;DHT22;48849;48.758;9.158;2023-08-12T04:18:44;22.10;99.90
2212;DHT22;48849;48.758;9.158;2023-08-12T04:21:11;22.10;99.90
2212;DHT22;48849;48.758;9.158;2023-08-12T04:23:39;22.10;99.90
2212;DHT22;48849;48.758;9.158;2023-08-12T04:26:06;22.10;99.90
2212;DHT22;48849;48.758;9.158;2023-08-12T04:28:33;22.10;99.90
2212;DHT22;48849;48.758;9.158;2023-08-12T04:31:06;22.10;99.90
2212;DHT22;48849;48.758;9.158;2023-08-12T04:33:34;22.10;99.90
2212;DHT22;48849;48.758;9.158;2023-08-12T04:36:06;22.10;99.90
2212;DHT22;48849;48.758;9.158;2023-08-12T04:38:35;22.10;99.90
2212;DHT22;48849;48.758;9.158;2023-08-12T04:41:04;22.10;99.90
2212;DHT22;48849;48.758;9.158;2023-08-12T04:43:33;22.10;99.90
2212;DHT22;48849;48.758;9.158;2023-08-12T04:46:05;22.10;99.90
2212;DHT22;48849;48.758;9.158;2023-08-12T04:48:34;22.10;99.90
2212;DHT22;48849;48.758;9.158;2023-08-12T04:51:02;22.10;99.90
2212;DHT22;48849;48.758;9.158;2023-08-12T04:53:33;22.10;99.90
2212;DHT22;48849;48.758;9.158;2023-08-12T04:56:00;22.10;99.90
2212;DHT22;48849;48.758;9.158;2023-08-12T04:58:27;22.00;99.90
2212;DHT22;48849;48.758;9.158;2023-08-12T05:00:58;22.10;99.90
2212;DHT22;48849;48.758;9.158;2023-08-12T05:03:30;22.10;99.90
2212;DHT22;48849;48.758;9.158;2023-08-12T05:05:57;22.10;99.90
2212;DHT22;48849;48.758;9.158;2023-08-12T05:08:27;22.00;99.90
2212;DHT22;48849;48.758;9.158;2023-08-12T05:10:56;22.00;99.90
2212;DHT22;48849;48.758;9.158;2023-08-12T05:13:26;22.00;99.90
2212;DHT22;48849;48.758;9.158;2023-08-12T05:15:53;22.10;99.90
2212;DHT22;48849;48.758;9.158;2023-08-12T05:18:22;22.10;99.90
2212;DHT22;48849;48.758;9.158;2023-08-12T05:20:55;22.00;99.90
2212;DHT22;48849;48.758;9.158;2023-08-12T05:23:22;22.00;99.90
2212;DHT22;48849;48.758;9.158;2023-08-12T05:25:50;22.00;99.90
2212;DHT22;48849;48.758;9.158;2023-08-12T05:28:20;22.10;99.90
2212;DHT22;48849;48.758;9.158;2023-08-12T05:30:48;22.10;99.90
2212;DHT22;48849;48.758;9.158;2023-08-12T05:33:18;22.10;99.90
2212;DHT22;48849;48.758;9.158;2023-08-12T05:35:48;22.10;99.90
2212;DHT22;48849;48.758;9.158;2023-08-12T05:38:17;22.10;99.90
2212;DHT22;48849;48.758;9.158;2023-08-12T05:40:44;22.10;99.90
2212;DHT22;48849;48.758;9.158;2023-08-12T05:43:14;22.10;99.90
2212;DHT22;48849;48.758;9.158;2023-08-12T05:45:41;22.10;99.90
2212;DHT22;48849;48.758;9.158;2023-08-12T05:48:09;22.20;99.90
2212;DHT22;48849;48.758;9.158;2023-08-12T05:50:35;22.10;99.90
2212;DHT22;48849;48.758;9.158;2023-08-12T05:53:03;22.10;99.90
2212;DHT22;48849;48.758;9.158;2023-08-12T05:55:33;22.10;99.90
2212;DHT22;48849;48.758;9.158;2023-08-12T05:58:00;22.10;99.90
2212;DHT22;48849;48.758;9.158;2023-08-12T06:00:27;22.10;99.90
2212;DHT22;48849;48.758;9.158;2023-08-12T06:02:54;22.20;99.90
2212;DHT22;48849;48.758;9.158;2023-08-12T06:05:21;22.10;99.90
2212;DHT22;48849;48.758;9.158;2023-08-12T06:07:48;22.20;99.90
2212;DHT22;48849;48.758;9.158;2023-08-12T06:10:15;22.10;99.90
2212;DHT22;48849;48.758;9.158;2023-08-12T06:12:46;22.10;99.90
2212;DHT22;48849;48.758;9.158;2023-08-12T06:15:13;22.10;99.90
2212;DHT22;48849;48.758;9.158;2023-08-12T06:17:40;22.10;99.90
2212;DHT22;48849;48.758;9.158;2023-08-12T06:20:11;22.10;99.90
2212;DHT22;48849;48.758;9.158;2023-08-12T06:22:37;22.10;99.90
2212;DHT22;48849;48.758;9.158;2023-08-12T06:25:05;22.10;99.90
2212;DHT22;48849;48.758;9.158;2023-08-12T06:27:32;22.10;99.90
2212;DHT22;48849;48.758;9.158;2023-08-12T06:30:04;22.10;99.90
2212;DHT22;48849;48.758;9.158;2023-08-12T06:32:33;22.10;99.90
2212;DHT22;48849;48.758;9.158;2023-08-12T06:35:00;22.10;99.90
2212;DHT22;48849;48.758;9.158;2023-08-12T06:37:34;22.10;99.90
2212;DHT22;48849;48.758;9.158;2023-08-12T06:40:05;22.20;99.90
2212;DHT22;48849;48.758;9.158;2023-08-12T06:42:33;22.20;99.90
2212;DHT22;48849;48.758;9.158;2023-08-12T06:45:05;22.20;99.90
2212;DHT22;48849;48.758;9.158;2023-08-12T06:47:33;22.20;99.90
2212;DHT22;48849;48.758;9.158;2023-08-12T06:50:00;22.20;99.90
2212;DHT22;48849;48.758;9.158;2023-08-12T06:52:27;22.20;99.90
2212;DHT22;48849;48.758;9.158;2023-08-12T06:54:54;22.30;99.90
2212;DHT22;48849;48.758;9.158;2023-08-12T06:57:22;22.30;99.90
2212;DHT22;48849;48.758;9.158;2023-08-12T06:59:48;22.30;99.90
2212;DHT22;48849;48.758;9.158;2023-08-12T07:02:16;22.40;99.90
2212;DHT22;48849;48.758;9.158;2023-08-12T07:04:43;22.40;99.90
2212;DHT22;48849;48.758;9.158;2023-08-12T07:07:13;22.50;99.90
2212;DHT22;48849;48.758;9.158;2023-08-12T07:09:39;22.40;99.90
2212;DHT22;48849;48.758;9.158;2023-08-12T07:12:07;22.50;99.90
2212;DHT22;48849;48.758;9.158;2023-08-12T07:14:34;22.50;99.90
2212;DHT22;48849;48.758;9.158;2023-08-12T07:17:00;22.50;99.90
2212;DHT22;48849;48.758;9.158;2023-08-12T07:19:29;22.50;99.90
2212;DHT22;48849;48.758;9.158;2023-08-12T07:21:55;22.50;99.90
2212;DHT22;48849;48.758;9.158;2023-08-12T07:24:22;22.50;99.90
2212;DHT22;48849;48.758;9.158;2023-08-12T07:26:49;22.50;99.90
2212;DHT22;48849;48.758;9.158;2023-08-12T07:29:15;22.60;99.90
2212;DHT22;48849;48.758;9.158;2023-08-12T07:31:42;22.60;99.90
2212;DHT22;48849;48.758;9.158;2023-08-12T07:34:09;22.60;99.90
2212;DHT22;48849;48.758;9.158;2023-08-12T07:36:40;22.60;99.90
2212;DHT22;48849;48.758;9.158;2023-08-12T07:39:07;22.60;99.90
2212;DHT22;48849;48.758;9.158;2023-08-12T07:41:34;22.60;99.90
2212;DHT22;48849;48.758;9.158;2023-08-12T07:44:01;22.60;99.90
2212;DHT22;48849;48.758;9.158;2023-08-12T07:46:28;22.60;99.90
2212;DHT22;48849;48.758;9.158;2023-08-12T07:48:55;22.60;99.90
2212;DHT22;48849;48.758;9.158;2023-08-12T07:51:22;22.60;99.90
2212;DHT22;48849;48.758;9.158;2023-08-12T07:53:50;22.60;99.90
2212;DHT22;48849;48.758;9.158;2023-08-12T07:56:16;22.60;99.90
2212;DHT22;48849;48.758;9.158;2023-08-12T07:58:43;22.60;99.90
2212;DHT22;48849;48.758;9.158;2023-08-12T08:01:11;22.60;99.90
2212;DHT22;48849;48.758;9.158;2023-08-12T08:03:38;22.60;99.90
2212;DHT22;48849;48.758;9.158;2023-08-12T08:06:05;22.60;99.90
2212;DHT22;48849;48.758;9.158;2023-08-12T08:08:31;22.60;99.90
2212;DHT22;48849;48.758;9.158;2023-08-12T08:10:59;22.70;99.90
2212;DHT22;48849;48.758;9.158;2023-08-12T08:13:26;22.60;99.90
2212;DHT22;48849;48.758;9.158;2023-08-12T08:15:53;22.60;99.90
2212;DHT22;48849;48.758;9.158;2023-08-12T08:18:20;22.60;99.90
2212;DHT22;48849;48.758;9.158;2023-08-12T08:20:46;22.60;99.90
2212;DHT22;48849;48.758;9.158;2023-08-12T08:23:13;22.60;99.90
2212;DHT22;48849;48.758;9.158;2023-08-12T08:25:40;22.70;99.90
2212;DHT22;48849;48.758;9.158;2023-08-12T08:28:08;22.70;99.90
2212;DHT22;48849;48.758;9.158;2023-08-12T08:30:36;22.70;99.90
2212;DHT22;48849;48.758;9.158;2023-08-12T08:33:03;22.80;99.90
2212;DHT22;48849;48.758;9.158;2023-08-12T08:35:36;22.80;99.90
2212;DHT22;48849;48.758;9.158;2023-08-12T08:38:15;22.80;99.90
2212;DHT22;48849;48.758;9.158;2023-08-12T08:40:42;22.90;99.90
2212;DHT22;48849;48.758;9.158;2023-08-12T08:43:15;22.90;99.90
2212;DHT22;48849;48.758;9.158;2023-08-12T08:45:53;22.90;99.90
2212;DHT22;48849;48.758;9.158;2023-08-12T08:48:28;22.90;99.90
2212;DHT22;48849;48.758;9.158;2023-08-12T08:50:55;22.90;99.90
2212;DHT22;48849;48.758;9.158;2023-08-12T08:53:25;22.90;99.90
2212;DHT22;48849;48.758;9.158;2023-08-12T08:56:27;22.90;99.90
2212;DHT22;48849;48.758;9.158;2023-08-12T08:58:56;22.90;99.90
2212;DHT22;48849;48.758;9.158;2023-08-12T09:01:23;22.90;99.90
2212;DHT22;48849;48.758;9.158;2023-08-12T09:06:40;22.90;99.90
2212;DHT22;48849;48.758;9.158;2023-08-12T09:09:10;23.00;99.90
2212;DHT22;48849;48.758;9.158;2023-08-12T09:11:41;23.00;99.90
2212;DHT22;48849;48.758;9.158;2023-08-12T09:14:11;23.00;99.90
2212;DHT22;48849;48.758;9.158;2023-08-12T09:16:37;23.00;99.90
2212;DHT22;48849;48.758;9.158;2023-08-12T09:19:04;23.10;99.90
2212;DHT22;48849;48.758;9.158;2023-08-12T09:21:34;23.10;99.90
2212;DHT22;48849;48.758;9.158;2023-08-12T09:24:03;23.10;99.90
2212;DHT22;48849;48.758;9.158;2023-08-12T09:26:30;23.20;99.90
2212;DHT22;48849;48.758;9.158;2023-08-12T09:28:59;23.20;99.90
2212;DHT22;48849;48.758;9.158;2023-08-12T09:31:28;23.20;99.90
2212;DHT22;48849;48.758;9.158;2023-08-12T09:33:58;23.20;99.90
2212;DHT22;48849;48.758;9.158;2023-08-12T09:36:27;23.30;99.90
2212;DHT22;48849;48.758;9.158;2023-08-12T09:38:55;23.30;99.90
2212;DHT22;48849;48.758;9.158;2023-08-12T09:41:22;23.40;99.90
2212;DHT22;48849;48.758;9.158;2023-08-12T09:43:51;23.50;99.90
2212;DHT22;48849;48.758;9.158;2023-08-12T09:46:18;23.50;99.90
2212;DHT22;48849;48.758;9.158;2023-08-12T09:48:50;23.60;99.90
2212;DHT22;48849;48.758;9.158;2023-08-12T09:51:18;23.60;99.90
2212;DHT22;48849;48.758;9.158;2023-08-12T09:53:46;23.70;99.90
2212;DHT22;48849;48.758;9.158;2023-08-12T09:56:17;23.80;99.90
2212;DHT22;48849;48.758;9.158;2023-08-12T09:58:47;23.80;99.90
2212;DHT22;48849;48.758;9.158;2023-08-12T10:01:17;23.80;99.90
2212;DHT22;48849;48.758;9.158;2023-08-12T10:03:48;23.80;99.90
2212;DHT22;48849;48.758;9.158;2023-08-12T10:06:16;23.80;99.90
2212;DHT22;48849;48.758;9.158;2023-08-12T10:08:45;23.80;99.90
2212;DHT22;48849;48.758;9.158;2023-08-12T10:11:13;23.80;99.90
2212;DHT22;48849;48.758;9.158;2023-08-12T10:13:40;23.70;99.90
2212;DHT22;48849;48.758;9.158;2023-08-12T10:16:08;23.80;99.90
2212;DHT22;48849;48.758;9.158;2023-08-12T10:18:36;23.70;99.90
2212;DHT22;48849;48.758;9.158;2023-08-12T10:21:03;23.70;99.90
2212;DHT22;48849;48.758;9.158;2023-08-12T10:23:31;23.70;99.90
2212;DHT22;48849;48.758;9.158;2023-08-12T10:26:00;23.70;99.90
2212;DHT22;48849;48.758;9.158;2023-08-12T10:28:29;23.70;99.90
2212;DHT22;48849;48.758;9.158;2023-08-12T10:30:57;23.80;99.90
2212;DHT22;48849;48.758;9.158;2023-08-12T10:33:24;23.80;99.90
2212;DHT22;48849;48.758;9.158;2023-08-12T10:35:51;23.80;99.90
2212;DHT22;48849;48.758;9.158;2023-08-12T10:38:24;23.90;99.90
2212;DHT22;48849;48.758;9.158;2023-08-12T10:41:16;23.90;99.90
2212;DHT22;48849;48.758;9.158;2023-08-12T10:43:54;23.90;99.90
2212;DHT22;48849;48.758;9.158;2023-08-12T10:46:28;23.90;99.90
2212;DHT22;48849;48.758;9.158;2023-08-12T10:48:57;24.00;99.90
2212;DHT22;48849;48.758;9.158;2023-08-12T10:55:22;24.10;99.90
2212;DHT22;48849;48.758;9.158;2023-08-12T10:57:52;24.20;99.90
2212;DHT22;48849;48.758;9.158;2023-08-12T11:00:20;24.30;99.90
2212;DHT22;48849;48.758;9.158;2023-08-12T11:02:56;24.40;99.90
2212;DHT22;48849;48.758;9.158;2023-08-12T11:05:24;24.40;99.90
2212;DHT22;48849;48.758;9.158;2023-08-12T11:07:56;24.50;99.90
2212;DHT22;48849;48.758;9.158;2023-08-12T11:10:25;24.50;99.90
2212;DHT22;48849;48.758;9.158;2023-08-12T11:12:55;24.60;99.90
2212;DHT22;48849;48.758;9.158;2023-08-12T11:15:37;24.70;99.90
2212;DHT22;48849;48.758;9.158;2023-08-12T11:18:09;24.80;99.90
2212;DHT22;48849;48.758;9.158;2023-08-12T11:20:37;24.80;99.90
2212;DHT22;48849;48.758;9.158;2023-08-12T11:23:05;24.90;99.90
2212;DHT22;48849;48.758;9.158;2023-08-12T11:25:33;25.00;99.90
2212;DHT22;48849;48.758;9.158;2023-08-12T11:28:04;25.10;99.90
2212;DHT22;48849;48.758;9.158;2023-08-12T11:30:31;25.10;99.90
2212;DHT22;48849;48.758;9.158;2023-08-12T11:32:58;25.20;99.90
2212;DHT22;48849;48.758;9.158;2023-08-12T11:35:44;25.30;99.90
2212;DHT22;48849;48.758;9.158;2023-08-12T11:38:28;25.50;99.90
2212;DHT22;48849;48.758;9.158;2023-08-12T11:40:55;25.70;99.90
2212;DHT22;48849;48.758;9.158;2023-08-12T11:43:23;25.90;99.90
2212;DHT22;48849;48.758;9.158;2023-08-12T11:46:02;26.10;99.90
2212;DHT22;48849;48.758;9.158;2023-08-12T11:48:29;26.30;99.90
2212;DHT22;48849;48.758;9.158;2023-08-12T11:51:17;26.50;99.90
2212;DHT22;48849;48.758;9.158;2023-08-12T11:56:27;27.00;99.90
2212;DHT22;48849;48.758;9.158;2023-08-12T11:58:55;27.20;99.90
2212;DHT22;48849;48.758;9.158;2023-08-12T12:01:22;27.40;99.90
2212;DHT22;48849;48.758;9.158;2023-08-12T12:03:51;27.60;99.90
2212;DHT22;48849;48.758;9.158;2023-08-12T12:06:17;27.60;99.90
2212;DHT22;48849;48.758;9.158;2023-08-12T12:08:53;27.60;99.90
2212;DHT22;48849;48.758;9.158;2023-08-12T12:11:20;27.60;99.90
2212;DHT22;48849;48.758;9.158;2023-08-12T12:13:47;27.40;99.90
2212;DHT22;48849;48.758;9.158;2023-08-12T12:16:15;27.40;99.90
2212;DHT22;48849;48.758;9.158;2023-08-12T12:18:42;27.30;99.90
2212;DHT22;48849;48.758;9.158;2023-08-12T12:21:08;27.10;99.90
2212;DHT22;48849;48.758;9.158;2023-08-12T12:23:37;26.90;99.90
2212;DHT22;48849;48.758;9.158;2023-08-12T12:26:04;26.80;99.90
2212;DHT22;48849;48.758;9.158;2023-08-12T12:28:31;26.60;99.90
2212;DHT22;48849;48.758;9.158;2023-08-12T12:30:57;26.50;99.90
2212;DHT22;48849;48.758;9.158;2023-08-12T12:33:26;26.30;99.90
2212;DHT22;48849;48.758;9.158;2023-08-12T12:35:52;26.20;99.90
2212;DHT22;48849;48.758;9.158;2023-08-12T12:38:19;26.00;99.90
2212;DHT22;48849;48.758;9.158;2023-08-12T12:40:46;25.90;99.90
2212;DHT22;48849;48.758;9.158;2023-08-12T12:43:13;25.70;99.90
2212;DHT22;48849;48.758;9.158;2023-08-12T12:45:40;25.60;99.90
2212;DHT22;48849;48.758;9.158;2023-08-12T12:48:06;25.50;99.90
2212;DHT22;48849;48.758;9.158;2023-08-12T12:50:34;25.20;99.90
2212;DHT22;48849;48.758;9.158;2023-08-12T12:53:03;25.10;99.90
2212;DHT22;48849;48.758;9.158;2023-08-12T12:55:30;25.10;99.90
2212;DHT22;48849;48.758;9.158;2023-08-12T12:57:57;24.90;99.90
2212;DHT22;48849;48.758;9.158;2023-08-12T13:00:23;24.90;99.90
2212;DHT22;48849;48.758;9.158;2023-08-12T13:02:50;24.70;99.90
2212;DHT22;48849;48.758;9.158;2023-08-12T13:05:17;24.70;99.90
2212;DHT22;48849;48.758;9.158;2023-08-12T13:07:45;24.70;99.90
2212;DHT22;48849;48.758;9.158;2023-08-12T13:10:12;24.60;99.90
2212;DHT22;48849;48.758;9.158;2023-08-12T13:12:39;24.60;99.90
2212;DHT22;48849;48.758;9.158;2023-08-12T13:15:06;24.60;99.90
2212;DHT22;48849;48.758;9.158;2023-08-12T13:17:34;24.50;99.90
2212;DHT22;48849;48.758;9.158;2023-08-12T13:20:00;24.50;99.90
2212;DHT22;48849;48.758;9.158;2023-08-12T13:22:27;24.40;99.90
2212;DHT22;48849;48.758;9.158;2023-08-12T13:24:55;24.40;99.90
2212;DHT22;48849;48.758;9.158;2023-08-12T13:27:22;24.30;99.90
2212;DHT22;48849;48.758;9.158;2023-08-12T13:29:49;24.30;99.90
2212;DHT22;48849;48.758;9.158;2023-08-12T13:32:16;24.30;99.90
2212;DHT22;48849;48.758;9.158;2023-08-12T13:34:43;24.20;99.90
2212;DHT22;48849;48.758;9.158;2023-08-12T13:37:11;24.20;99.90
2212;DHT22;48849;48.758;9.158;2023-08-12T13:39:38;24.20;99.90
2212;DHT22;48849;48.758;9.158;2023-08-12T13:42:06;24.20;99.90
2212;DHT22;48849;48.758;9.158;2023-08-12T13:44:33;24.10;99.90
2212;DHT22;48849;48.758;9.158;2023-08-12T13:47:00;24.10;99.90
2212;DHT22;48849;48.758;9.158;2023-08-12T13:49:27;24.10;99.90
2212;DHT22;48849;48.758;9.158;2023-08-12T13:51:55;24.20;99.90
2212;DHT22;48849;48.758;9.158;2023-08-12T13:54:21;24.30;99.90
2212;DHT22;48849;48.758;9.158;2023-08-12T13:56:48;25.30;99.90
2212;DHT22;48849;48.758;9.158;2023-08-12T13:59:16;26.10;99.90
2212;DHT22;48849;48.758;9.158;2023-08-12T14:01:43;26.40;99.90
2212;DHT22;48849;48.758;9.158;2023-08-12T14:04:10;26.40;99.90
2212;DHT22;48849;48.758;9.158;2023-08-12T14:06:37;26.40;99.90
2212;DHT22;48849;48.758;9.158;2023-08-12T14:09:05;26.30;99.90
2212;DHT22;48849;48.758;9.158;2023-08-12T14:11:33;26.20;99.90
2212;DHT22;48849;48.758;9.158;2023-08-12T14:14:00;26.10;99.90
2212;DHT22;48849;48.758;9.158;2023-08-12T14:16:28;26.00;99.90
2212;DHT22;48849;48.758;9.158;2023-08-12T14:18:54;25.80;99.90
2212;DHT22;48849;48.758;9.158;2023-08-12T14:21:21;25.60;99.90
2212;DHT22;48849;48.758;9.158;2023-08-12T14:23:48;25.50;99.90
2212;DHT22;48849;48.758;9.158;2023-08-12T14:26:14;25.40;99.90
2212;DHT22;48849;48.758;9.158;2023-08-12T14:28:41;25.30;99.90
2212;DHT22;48849;48.758;9.158;2023-08-12T14:31:08;25.20;99.90
2212;DHT22;48849;48.758;9.158;2023-08-12T14:33:36;25.10;99.90
2212;DHT22;48849;48.758;9.158;2023-08-12T14:36:05;25.00;99.90
2212;DHT22;48849;48.758;9.158;2023-08-12T14:38:32;24.90;99.90
2212;DHT22;48849;48.758;9.158;2023-08-12T14:40:59;24.80;99.90
2212;DHT22;48849;48.758;9.158;2023-08-12T14:43:26;24.80;99.90
2212;DHT22;48849;48.758;9.158;2023-08-12T14:45:53;24.70;99.90
2212;DHT22;48849;48.758;9.158;2023-08-12T14:48:20;24.70;99.90
2212;DHT22;48849;48.758;9.158;2023-08-12T14:50:48;24.60;99.90
2212;DHT22;48849;48.758;9.158;2023-08-12T14:53:15;24.60;99.90
2212;DHT22;48849;48.758;9.158;2023-08-12T14:55:42;24.50;99.90
2212;DHT22;48849;48.758;9.158;2023-08-12T14:58:08;24.50;99.90
2212;DHT22;48849;48.758;9.158;2023-08-12T15:10:18;24.40;99.90
2212;DHT22;48849;48.758;9.158;2023-08-12T15:13:32;24.40;99.90
2212;DHT22;48849;48.758;9.158;2023-08-12T15:16:09;24.30;99.90
2212;DHT22;48849;48.758;9.158;2023-08-12T15:18:58;24.40;99.90
2212;DHT22;48849;48.758;9.158;2023-08-12T15:21:36;24.30;99.90
2212;DHT22;48849;48.758;9.158;2023-08-12T15:24:07;24.30;99.90
2212;DHT22;48849;48.758;9.158;2023-08-12T15:26:35;24.30;99.90
2212;DHT22;48849;48.758;9.158;2023-08-12T15:29:02;24.30;99.90
2212;DHT22;48849;48.758;9.158;2023-08-12T15:38:11;24.30;99.90
2212;DHT22;48849;48.758;9.158;2023-08-12T15:44:42;24.20;99.90
2212;DHT22;48849;48.758;9.158;2023-08-12T15:53:21;24.10;99.90
2212;DHT22;48849;48.758;9.158;2023-08-12T15:55:51;24.10;99.90
2212;DHT22;48849;48.758;9.158;2023-08-12T15:58:30;24.10;99.90
2212;DHT22;48849;48.758;9.158;2023-08-12T16:14:19;24.10;99.90
2212;DHT22;48849;48.758;9.158;2023-08-12T16:17:11;24.00;99.90
2212;DHT22;48849;48.758;9.158;2023-08-12T16:23:52;24.00;99.90
2212;DHT22;48849;48.758;9.158;2023-08-12T16:26:22;24.00;99.90
2212;DHT22;48849;48.758;9.158;2023-08-12T16:29:10;24.70;99.90
2212;DHT22;48849;48.758;9.158;2023-08-12T16:32:04;24.00;99.90
2212;DHT22;48849;48.758;9.158;2023-08-12T16:35:03;24.00;99.90
2212;DHT22;48849;48.758;9.158;2023-08-12T16:38:30;24.10;99.90
2212;DHT22;48849;48.758;9.158;2023-08-12T16:48:05;23.40;99.90
2212;DHT22;48849;48.758;9.158;2023-08-12T16:51:00;23.90;99.90
2212;DHT22;48849;48.758;9.158;2023-08-12T16:54:55;23.90;99.90
2212;DHT22;48849;48.758;9.158;2023-08-12T17:04:06;23.20;99.90
2212;DHT22;48849;48.758;9.158;2023-08-12T17:10:46;23.90;99.90
2212;DHT22;48849;48.758;9.158;2023-08-12T17:13:14;23.90;99.90
2212;DHT22;48849;48.758;9.158;2023-08-12T17:16:03;23.60;99.90
2212;DHT22;48849;48.758;9.158;2023-08-12T17:19:20;24.20;99.90
2212;DHT22;48849;48.758;9.158;2023-08-12T17:25:12;23.60;99.90
2212;DHT22;48849;48.758;9.158;2023-08-12T17:27:59;23.90;99.90
2212;DHT22;48849;48.758;9.158;2023-08-12T17:31:00;24.80;99.90
2212;DHT22;48849;48.758;9.158;2023-08-12T17:33:39;23.30;99.90
2212;DHT22;48849;48.758;9.158;2023-08-12T17:36:36;23.80;99.90